createdAt,value
2018-06-05T00:01:06.700Z,89.10
2018-06-05T00:03:35.223Z,89.60
2018-06-05T00:06:03.753Z,89.70
2018-06-05T00:08:32.286Z,90.30
2018-06-05T00:11:00.792Z,90.10
2018-06-05T00:13:29.344Z,89.80
2018-06-05T00:15:57.871Z,89.70
2018-06-05T00:18:26.374Z,89.30
2018-06-05T00:20:54.890Z,88.70
2018-06-05T00:23:23.397Z,88.80
2018-06-05T00:25:52.175Z,88.80
2018-06-05T00:28:20.770Z,88.90
2018-06-05T00:30:49.334Z,89.10
2018-06-05T00:33:17.839Z,88.70
2018-06-05T00:35:46.355Z,88.90
2018-06-05T00:38:14.884Z,89.50
2018-06-05T00:40:43.412Z,89.50
2018-06-05T00:43:11.933Z,89.20
2018-06-05T00:45:49.728Z,89.40
2018-06-05T00:48:18.454Z,89.40
2018-06-05T00:50:46.956Z,89.80
2018-06-05T00:53:15.493Z,90.30
2018-06-05T00:55:44.051Z,90.40
2018-06-05T00:58:12.583Z,91.00
2018-06-05T01:00:41.079Z,90.70
2018-06-05T01:05:37.795Z,90.40
2018-06-05T01:08:06.319Z,90.70
2018-06-05T01:10:34.822Z,90.90
2018-06-05T01:13:03.326Z,90.80
2018-06-05T01:15:31.830Z,90.70
2018-06-05T01:18:00.329Z,90.90
2018-06-05T01:20:28.847Z,90.90
2018-06-05T01:22:57.433Z,91.20
2018-06-05T01:25:25.928Z,91.30
2018-06-05T01:27:54.481Z,91.80
2018-06-05T01:30:22.960Z,91.70
2018-06-05T01:32:51.510Z,91.10
2018-06-05T01:35:20.032Z,91.10
2018-06-05T01:37:48.534Z,90.90
2018-06-05T01:40:17.047Z,90.80
2018-06-05T01:42:45.546Z,91.60
2018-06-05T01:45:14.047Z,91.80
2018-06-05T01:47:42.558Z,92.30
2018-06-05T01:50:11.090Z,92.60
2018-06-05T01:52:39.623Z,92.50
2018-06-05T01:55:08.204Z,92.60
2018-06-05T01:57:36.713Z,92.60
2018-06-05T02:00:05.284Z,93.10
2018-06-05T02:02:33.794Z,93.00
2018-06-05T02:05:02.294Z,93.60
2018-06-05T02:07:30.829Z,93.50
2018-06-05T02:09:59.339Z,93.30
2018-06-05T02:12:27.862Z,92.50
2018-06-05T02:14:56.418Z,92.20
2018-06-05T02:17:24.974Z,92.60
2018-06-05T02:19:53.566Z,93.00
2018-06-05T02:22:22.075Z,92.50
2018-06-05T02:24:50.584Z,92.30
2018-06-05T02:27:19.102Z,92.50
2018-06-05T02:29:47.626Z,92.40
2018-06-05T02:32:16.105Z,92.50
2018-06-05T02:34:44.595Z,92.10
2018-06-05T02:37:13.162Z,92.30
2018-06-05T02:39:41.706Z,92.40
2018-06-05T02:42:10.212Z,92.30
2018-06-05T02:44:38.755Z,92.60
2018-06-05T02:47:07.299Z,93.10
2018-06-05T02:49:35.822Z,93.20
2018-06-05T02:52:04.336Z,92.50
2018-06-05T02:54:32.846Z,92.10
2018-06-05T02:57:01.354Z,92.00
2018-06-05T02:59:29.852Z,92.40
2018-06-05T03:01:58.429Z,92.80
2018-06-05T03:04:26.978Z,92.70
2018-06-05T03:06:55.487Z,93.10
2018-06-05T03:09:23.998Z,92.90
2018-06-05T03:11:52.541Z,92.40
2018-06-05T03:14:21.097Z,93.00
2018-06-05T03:16:49.612Z,92.40
2018-06-05T03:19:18.132Z,92.10
2018-06-05T03:21:46.662Z,92.30
2018-06-05T03:24:15.198Z,92.30
2018-06-05T03:26:43.696Z,91.60
2018-06-05T03:29:12.222Z,91.70
2018-06-05T03:31:40.747Z,91.80
2018-06-05T03:34:09.308Z,92.10
2018-06-05T03:36:37.838Z,92.40
2018-06-05T03:39:07.295Z,92.20
2018-06-05T03:41:35.831Z,92.60
2018-06-05T03:44:04.406Z,92.50
2018-06-05T03:46:32.925Z,92.30
2018-06-05T03:49:01.450Z,93.10
2018-06-05T03:51:29.937Z,91.90
2018-06-05T03:53:58.433Z,91.30
2018-06-05T03:56:26.965Z,90.90
2018-06-05T03:58:55.476Z,90.90
2018-06-05T04:01:23.999Z,91.20
2018-06-05T04:03:52.552Z,91.60
2018-06-05T04:06:21.083Z,91.20
2018-06-05T04:08:49.590Z,91.10
2018-06-05T04:11:18.457Z,90.80
2018-06-05T04:13:46.967Z,90.50
2018-06-05T04:16:15.471Z,90.70
2018-06-05T04:18:44.023Z,90.60
2018-06-05T04:21:12.526Z,91.10
2018-06-05T04:23:41.044Z,91.30
2018-06-05T04:26:09.564Z,92.40
2018-06-05T04:28:38.120Z,92.80
2018-06-05T04:31:06.633Z,92.30
2018-06-05T04:33:35.149Z,92.50
2018-06-05T04:36:03.718Z,93.20
2018-06-05T04:38:32.282Z,93.40
2018-06-05T04:41:00.790Z,93.60
2018-06-05T04:43:29.307Z,93.50
2018-06-05T04:45:57.877Z,93.70
2018-06-05T04:48:26.400Z,93.00
2018-06-05T04:50:54.921Z,93.00
2018-06-05T04:53:23.479Z,93.60
2018-06-05T04:55:52.067Z,92.50
2018-06-05T04:58:20.609Z,92.80
2018-06-05T05:00:49.141Z,92.50
2018-06-05T05:03:17.654Z,92.40
2018-06-05T05:05:46.186Z,92.50
2018-06-05T05:08:14.767Z,92.70
2018-06-05T05:10:43.307Z,92.60
2018-06-05T05:13:11.842Z,93.10
2018-06-05T05:15:40.332Z,93.10
2018-06-05T05:18:08.820Z,93.10
2018-06-05T05:20:37.394Z,93.40
2018-06-05T05:23:05.915Z,93.20
2018-06-05T05:25:34.495Z,92.90
2018-06-05T05:28:03.035Z,92.80
2018-06-05T05:30:31.567Z,92.50
2018-06-05T05:33:00.138Z,92.50
2018-06-05T05:35:28.723Z,92.00
2018-06-05T05:37:57.310Z,91.70
2018-06-05T05:40:25.876Z,91.90
2018-06-05T05:42:54.423Z,92.10
2018-06-05T05:45:22.994Z,92.10
2018-06-05T05:47:51.531Z,92.00
2018-06-05T05:50:20.079Z,91.80
2018-06-05T05:52:48.610Z,92.00
2018-06-05T05:55:17.121Z,92.10
2018-06-05T05:57:45.696Z,91.20
2018-06-05T06:00:14.274Z,91.20
2018-06-05T06:02:42.810Z,91.60
2018-06-05T06:05:11.397Z,91.70
2018-06-05T06:07:39.917Z,91.10
2018-06-05T06:10:08.482Z,91.20
2018-06-05T06:12:36.987Z,91.20
2018-06-05T06:15:05.562Z,91.20
2018-06-05T06:17:34.098Z,90.70
2018-06-05T06:20:02.679Z,90.70
2018-06-05T06:22:31.217Z,90.90
2018-06-05T06:24:59.759Z,90.70
2018-06-05T06:27:28.317Z,90.40
2018-06-05T06:29:56.854Z,90.10
2018-06-05T06:32:25.399Z,90.60
2018-06-05T06:34:53.932Z,89.70
2018-06-05T06:37:22.501Z,90.00
2018-06-05T06:39:51.033Z,89.00
2018-06-05T06:42:19.703Z,89.20
2018-06-05T06:44:48.251Z,88.30
2018-06-05T06:47:16.808Z,88.90
2018-06-05T06:49:45.333Z,88.00
2018-06-05T06:52:13.880Z,87.60
2018-06-05T06:54:42.424Z,87.30
2018-06-05T06:57:10.973Z,86.70
2018-06-05T06:59:39.525Z,87.70
2018-06-05T07:02:08.041Z,87.80
2018-06-05T07:04:36.558Z,87.80
2018-06-05T07:07:05.133Z,87.20
2018-06-05T07:09:33.663Z,86.40
2018-06-05T07:12:02.163Z,87.00
2018-06-05T07:14:30.698Z,88.00
2018-06-05T07:16:59.242Z,88.30
2018-06-05T07:19:27.757Z,88.20
2018-06-05T07:21:56.303Z,88.40
2018-06-05T07:24:24.878Z,88.40
2018-06-05T07:26:53.433Z,88.30
2018-06-05T07:29:21.951Z,88.20
2018-06-05T07:31:50.507Z,87.80
2018-06-05T07:34:19.014Z,88.00
2018-06-05T07:36:47.558Z,87.60
2018-06-05T07:39:16.110Z,88.30
2018-06-05T07:41:44.882Z,87.90
2018-06-05T07:44:13.389Z,87.30
2018-06-05T07:46:41.894Z,87.40
2018-06-05T07:49:10.408Z,86.50
2018-06-05T07:51:39.012Z,86.30
2018-06-05T07:54:07.545Z,87.00
2018-06-05T07:56:36.108Z,86.90
2018-06-05T07:59:04.667Z,85.80
2018-06-05T08:01:33.186Z,87.00
2018-06-05T08:04:01.726Z,85.90
2018-06-05T08:06:30.234Z,86.20
2018-06-05T08:08:58.792Z,86.30
2018-06-05T08:11:27.318Z,85.00
2018-06-05T08:13:55.822Z,84.70
2018-06-05T08:16:24.352Z,84.40
2018-06-05T08:18:52.893Z,84.20
2018-06-05T08:21:21.450Z,85.00
2018-06-05T08:23:49.980Z,84.40
2018-06-05T08:26:18.530Z,84.40
2018-06-05T08:28:47.049Z,84.90
2018-06-05T08:31:15.577Z,85.10
2018-06-05T08:33:44.113Z,84.80
2018-06-05T08:36:12.666Z,85.30
2018-06-05T08:38:41.180Z,85.00
2018-06-05T08:41:09.672Z,84.90
2018-06-05T08:43:38.183Z,84.40
2018-06-05T08:46:06.898Z,84.90
2018-06-05T08:48:35.466Z,84.50
2018-06-05T08:51:04.012Z,84.90
2018-06-05T08:53:32.579Z,84.60
2018-06-05T08:56:01.106Z,84.90
2018-06-05T08:58:29.662Z,86.00
2018-06-05T09:00:58.288Z,85.90
2018-06-05T09:03:26.814Z,85.10
2018-06-05T09:05:55.394Z,85.00
2018-06-05T09:08:23.930Z,84.70
2018-06-05T09:10:52.500Z,85.30
2018-06-05T09:13:21.002Z,84.70
2018-06-05T09:15:49.742Z,84.70
2018-06-05T09:18:18.279Z,84.30
2018-06-05T09:20:46.797Z,84.40
2018-06-05T09:23:15.406Z,84.10
2018-06-05T09:25:43.959Z,83.90
2018-06-05T09:28:12.522Z,83.50
2018-06-05T09:30:41.038Z,83.60
2018-06-05T09:33:09.837Z,83.10
2018-06-05T09:35:38.339Z,83.30
2018-06-05T09:38:06.902Z,83.90
2018-06-05T09:40:35.439Z,83.70
2018-06-05T09:43:03.987Z,84.10
2018-06-05T09:45:32.507Z,84.60
2018-06-05T09:48:01.114Z,85.10
2018-06-05T09:50:29.623Z,84.40
2018-06-05T09:52:58.130Z,84.50
2018-06-05T09:55:26.624Z,84.80
2018-06-05T09:57:55.300Z,85.70
2018-06-05T10:00:29.059Z,84.10
2018-06-05T10:02:57.600Z,83.50
2018-06-05T10:05:26.153Z,84.40
2018-06-05T10:07:54.680Z,84.00
2018-06-05T10:10:23.211Z,82.20
2018-06-05T10:12:51.737Z,81.50
2018-06-05T10:15:20.342Z,80.60
2018-06-05T10:17:48.850Z,80.50
2018-06-05T10:20:17.374Z,80.50
2018-06-05T10:22:45.909Z,80.60
2018-06-05T10:25:14.458Z,81.70
2018-06-05T10:27:43.043Z,80.40
2018-06-05T10:30:11.582Z,80.10
2018-06-05T10:32:40.123Z,80.10
2018-06-05T10:35:08.655Z,80.10
2018-06-05T10:37:37.224Z,80.80
2018-06-05T10:40:05.824Z,80.70
2018-06-05T10:42:34.347Z,79.10
2018-06-05T10:45:02.869Z,79.20
2018-06-05T10:47:31.412Z,77.30
2018-06-05T10:49:59.958Z,77.70
2018-06-05T10:52:28.502Z,77.40
2018-06-05T10:54:57.058Z,76.60
2018-06-05T10:57:25.576Z,76.10
2018-06-05T10:59:54.103Z,76.20
2018-06-05T11:02:22.679Z,75.90
2018-06-05T11:04:51.210Z,75.80
2018-06-05T11:07:19.800Z,76.20
2018-06-05T11:09:48.438Z,76.70
2018-06-05T11:12:16.949Z,76.00
2018-06-05T11:14:45.482Z,75.60
2018-06-05T11:17:14.007Z,77.00
2018-06-05T11:19:42.553Z,77.00
2018-06-05T11:22:11.091Z,75.70
2018-06-05T11:24:39.668Z,75.30
2018-06-05T11:27:08.201Z,76.20
2018-06-05T11:29:36.770Z,76.20
2018-06-05T11:32:05.293Z,75.80
2018-06-05T11:34:33.801Z,77.20
2018-06-05T11:37:02.410Z,76.70
2018-06-05T11:39:30.961Z,76.30
2018-06-05T11:41:59.488Z,77.10
2018-06-05T11:44:28.010Z,76.50
2018-06-05T11:46:56.558Z,76.70
2018-06-05T11:49:25.101Z,77.00
2018-06-05T11:51:53.642Z,75.60
2018-06-05T11:54:22.296Z,75.40
2018-06-05T11:56:50.799Z,75.10
2018-06-05T11:59:19.314Z,74.00
2018-06-05T12:01:47.893Z,74.40
2018-06-05T12:04:16.400Z,75.50
2018-06-05T12:06:44.955Z,75.00
2018-06-05T12:09:13.478Z,75.20
2018-06-05T12:11:42.035Z,74.80
2018-06-05T12:14:10.598Z,75.20
2018-06-05T12:16:39.159Z,76.10
2018-06-05T12:19:07.791Z,76.50
2018-06-05T12:21:36.339Z,77.30
2018-06-05T12:24:04.934Z,76.10
2018-06-05T12:26:33.539Z,75.80
2018-06-05T12:29:02.086Z,76.10
2018-06-05T12:31:30.703Z,75.50
2018-06-05T12:33:59.246Z,75.80
2018-06-05T12:36:27.777Z,75.80
2018-06-05T12:38:56.355Z,74.90
2018-06-05T12:41:24.890Z,75.10
2018-06-05T12:43:53.483Z,73.30
2018-06-05T12:46:22.009Z,75.10
2018-06-05T12:48:50.576Z,74.00
2018-06-05T12:51:19.297Z,73.10
2018-06-05T12:53:47.808Z,74.50
2018-06-05T12:56:17.162Z,71.60
2018-06-05T12:58:46.806Z,73.60
2018-06-05T13:01:15.469Z,73.20
2018-06-05T13:03:43.993Z,72.90
2018-06-05T13:06:17.059Z,72.70
2018-06-05T13:08:45.575Z,71.80
2018-06-05T13:11:14.097Z,71.80
2018-06-05T13:13:42.647Z,70.60
2018-06-05T13:16:11.175Z,70.70
2018-06-05T13:18:39.686Z,71.70
2018-06-05T13:21:08.597Z,71.60
2018-06-05T13:23:37.121Z,72.00
2018-06-05T13:26:05.763Z,71.30
2018-06-05T13:28:34.319Z,68.80
2018-06-05T13:31:04.338Z,67.70
2018-06-05T13:33:32.878Z,68.00
2018-06-05T13:36:01.436Z,68.70
2018-06-05T13:38:30.134Z,69.60
2018-06-05T13:40:58.687Z,67.20
2018-06-05T13:43:27.297Z,68.20
2018-06-05T13:45:55.928Z,69.80
2018-06-05T13:48:24.450Z,68.20
2018-06-05T13:50:53.065Z,68.10
2018-06-05T13:53:21.989Z,67.70
2018-06-05T13:55:51.601Z,69.80
2018-06-05T13:58:20.828Z,68.10
2018-06-05T14:00:49.417Z,69.30
2018-06-05T14:03:19.212Z,67.90
2018-06-05T14:05:47.760Z,68.70
2018-06-05T14:08:17.160Z,67.30
2018-06-05T14:10:45.998Z,67.00
2018-06-05T14:13:14.798Z,68.10
2018-06-05T14:15:43.439Z,68.20
2018-06-05T14:18:12.010Z,69.10
2018-06-05T14:20:40.590Z,65.70
2018-06-05T14:23:09.117Z,66.30
2018-06-05T14:25:37.650Z,66.90
2018-06-05T14:28:06.165Z,67.20
2018-06-05T14:30:34.773Z,67.70
2018-06-05T14:33:03.355Z,66.30
2018-06-05T14:35:31.925Z,66.70
2018-06-05T14:38:00.522Z,67.10
2018-06-05T14:40:29.071Z,66.50
2018-06-05T14:42:57.585Z,66.90
2018-06-05T14:45:26.192Z,64.90
2018-06-05T14:47:55.215Z,63.80
2018-06-05T14:50:23.802Z,65.30
2018-06-05T14:52:52.298Z,64.80
2018-06-05T14:55:20.831Z,65.80
2018-06-05T14:57:49.341Z,67.40
2018-06-05T15:00:18.003Z,66.50
2018-06-05T15:02:46.613Z,66.90
2018-06-05T15:05:15.148Z,66.80
2018-06-05T15:07:43.657Z,66.10
2018-06-05T15:10:12.176Z,67.80
2018-06-05T15:12:40.719Z,67.60
2018-06-05T15:15:09.233Z,67.00
2018-06-05T15:17:37.846Z,67.80
2018-06-05T15:20:06.332Z,68.00
2018-06-05T15:22:34.814Z,67.80
2018-06-05T15:25:03.337Z,67.50
2018-06-05T15:27:31.874Z,67.70
2018-06-05T15:30:00.382Z,67.60
2018-06-05T15:32:31.202Z,68.50
2018-06-05T15:34:59.731Z,67.80
2018-06-05T15:37:28.236Z,66.40
2018-06-05T15:39:56.736Z,66.20
2018-06-05T15:42:25.244Z,65.60
2018-06-05T15:44:53.748Z,63.30
2018-06-05T15:47:22.240Z,66.40
2018-06-05T15:49:50.738Z,63.60
2018-06-05T15:52:19.310Z,63.30
2018-06-05T15:54:48.960Z,63.00
2018-06-05T15:57:17.576Z,62.20
2018-06-05T15:59:46.076Z,62.80
2018-06-05T16:02:14.646Z,61.60
2018-06-05T16:04:43.284Z,61.70
2018-06-05T16:07:11.887Z,62.40
2018-06-05T16:09:40.427Z,63.90
2018-06-05T16:12:09.116Z,64.30
2018-06-05T16:14:37.622Z,63.90
2018-06-05T16:17:06.147Z,63.10
2018-06-05T16:19:34.673Z,63.40
2018-06-05T16:22:03.200Z,61.30
2018-06-05T16:24:31.806Z,62.30
2018-06-05T16:27:00.336Z,62.30
2018-06-05T16:29:29.862Z,63.40
2018-06-05T16:31:59.025Z,62.10
2018-06-05T16:34:27.541Z,64.10
2018-06-05T16:36:56.211Z,64.20
2018-06-05T16:39:24.717Z,63.40
2018-06-05T16:41:53.200Z,63.70
2018-06-05T16:44:21.695Z,63.70
2018-06-05T16:46:50.254Z,63.40
2018-06-05T16:49:18.822Z,64.80
2018-06-05T16:51:47.341Z,62.00
2018-06-05T16:54:15.838Z,64.30
2018-06-05T16:56:44.333Z,64.00
2018-06-05T16:59:12.856Z,65.30
2018-06-05T17:01:41.348Z,64.90
2018-06-05T17:04:09.881Z,66.20
2018-06-05T17:06:38.419Z,64.70
2018-06-05T17:09:07.637Z,65.50
2018-06-05T17:11:36.133Z,65.60
2018-06-05T17:14:04.778Z,65.60
2018-06-05T17:16:33.316Z,65.40
2018-06-05T17:19:01.847Z,65.30
2018-06-05T17:21:30.458Z,66.00
2018-06-05T17:23:59.021Z,66.20
2018-06-05T17:26:27.522Z,66.40
2018-06-05T17:28:56.054Z,66.90
2018-06-05T17:31:24.570Z,66.60
2018-06-05T17:33:53.094Z,66.20
2018-06-05T17:36:21.625Z,66.50
2018-06-05T17:38:50.145Z,66.30
2018-06-05T17:41:18.706Z,66.90
2018-06-05T17:43:47.207Z,67.10
2018-06-05T17:46:15.774Z,68.00
2018-06-05T17:48:44.359Z,66.90
2018-06-05T17:51:12.900Z,67.00
2018-06-05T17:53:41.489Z,67.60
2018-06-05T17:56:10.027Z,68.10
2018-06-05T17:58:38.574Z,67.20
2018-06-05T18:01:07.115Z,67.70
2018-06-05T18:03:35.666Z,67.90
2018-06-05T18:06:04.239Z,68.60
2018-06-05T18:08:32.725Z,69.30
2018-06-05T18:11:01.247Z,69.70
2018-06-05T18:13:29.775Z,69.50
2018-06-05T18:15:58.293Z,70.00
2018-06-05T18:18:27.006Z,70.10
2018-06-05T18:20:55.587Z,70.40
2018-06-05T18:23:24.090Z,70.80
2018-06-05T18:25:52.673Z,70.80
2018-06-05T18:28:21.235Z,71.00
2018-06-05T18:30:49.887Z,71.40
2018-06-05T18:33:18.394Z,70.70
2018-06-05T18:35:46.910Z,71.70
2018-06-05T18:38:15.454Z,72.00
2018-06-05T18:40:43.956Z,72.50
2018-06-05T18:43:12.470Z,72.90
2018-06-05T18:45:41.009Z,73.50
2018-06-05T18:48:09.518Z,73.70
2018-06-05T18:50:38.242Z,74.10
2018-06-05T18:53:06.773Z,74.50
2018-06-05T18:55:35.296Z,74.90
2018-06-05T18:58:03.812Z,75.40
2018-06-05T19:00:32.311Z,75.80
2018-06-05T19:03:00.817Z,76.20
2018-06-05T19:05:29.382Z,76.50
2018-06-05T19:07:57.874Z,76.80
2018-06-05T19:10:26.514Z,76.80
2018-06-05T19:12:55.027Z,77.00
2018-06-05T19:15:23.622Z,76.80
2018-06-05T19:17:52.135Z,77.10
2018-06-05T19:20:20.643Z,77.50
2018-06-05T19:22:49.166Z,77.70
2018-06-05T19:25:17.716Z,78.00
2018-06-05T19:27:46.213Z,78.50
2018-06-05T19:30:14.751Z,79.00
2018-06-05T19:32:43.277Z,78.90
2018-06-05T19:35:11.787Z,79.20
2018-06-05T19:37:40.274Z,79.10
2018-06-05T19:40:08.839Z,79.00
2018-06-05T19:42:37.375Z,79.30
2018-06-05T19:45:05.939Z,79.60
2018-06-05T19:47:34.514Z,79.50
2018-06-05T19:50:03.135Z,79.60
2018-06-05T19:52:31.655Z,80.10
2018-06-05T19:55:01.126Z,80.20
2018-06-05T19:57:29.678Z,80.40
2018-06-05T19:59:58.313Z,80.40
2018-06-05T20:02:26.853Z,80.70
2018-06-05T20:04:55.482Z,81.20
2018-06-05T20:07:24.026Z,81.40
2018-06-05T20:09:52.557Z,81.60
2018-06-05T20:12:21.095Z,81.90
2018-06-05T20:14:49.628Z,82.00
2018-06-05T20:17:18.165Z,81.90
2018-06-05T20:19:46.821Z,81.90
2018-06-05T20:22:15.350Z,82.10
2018-06-05T20:24:43.854Z,82.40
2018-06-05T20:27:12.357Z,82.30
2018-06-05T20:29:40.926Z,82.70
2018-06-05T20:32:09.465Z,82.90
2018-06-05T20:34:38.078Z,83.00
2018-06-05T20:37:06.590Z,82.80
2018-06-05T20:39:35.169Z,82.80
2018-06-05T20:42:03.733Z,82.70
2018-06-05T20:44:32.254Z,82.60
2018-06-05T20:47:00.766Z,83.00
2018-06-05T20:49:29.318Z,83.20
2018-06-05T20:51:57.849Z,83.70
2018-06-05T20:54:26.374Z,84.10
2018-06-05T20:56:54.883Z,84.70
2018-06-05T20:59:23.405Z,84.60
2018-06-05T21:01:51.941Z,84.70
2018-06-05T21:04:20.463Z,85.10
2018-06-05T21:06:48.958Z,85.70
2018-06-05T21:09:17.482Z,85.90
2018-06-05T21:11:46.669Z,86.00
2018-06-05T21:14:15.133Z,85.70
2018-06-05T21:19:11.872Z,85.40
2018-06-05T21:21:40.440Z,85.20
2018-06-05T21:24:08.973Z,85.20
2018-06-05T21:26:37.463Z,85.20
2018-06-05T21:29:06.044Z,85.30
2018-06-05T21:31:34.560Z,85.40
2018-06-05T21:34:03.083Z,85.60
2018-06-05T21:36:31.654Z,85.60
2018-06-05T21:39:00.166Z,84.90
2018-06-05T21:41:28.675Z,85.10
2018-06-05T21:43:57.137Z,84.90
2018-06-05T21:46:25.633Z,85.10
2018-06-05T21:48:54.168Z,85.70
2018-06-05T21:51:22.706Z,85.90
2018-06-05T21:53:51.228Z,86.00
2018-06-05T21:56:19.814Z,86.60
2018-06-05T21:58:48.322Z,86.50
2018-06-05T22:01:16.831Z,86.80
2018-06-05T22:03:45.334Z,86.30
2018-06-05T22:06:13.894Z,86.60
2018-06-05T22:08:42.377Z,87.00
2018-06-05T22:11:10.891Z,86.30
2018-06-05T22:13:39.413Z,86.40
2018-06-05T22:16:07.974Z,86.50
2018-06-05T22:18:36.472Z,87.00
2018-06-05T22:21:05.034Z,87.40
2018-06-05T22:23:33.554Z,87.60
2018-06-05T22:26:02.070Z,87.60
2018-06-05T22:28:30.574Z,87.80
2018-06-05T22:30:59.112Z,87.80
2018-06-05T22:33:27.610Z,87.70
2018-06-05T22:35:56.110Z,87.70
2018-06-05T22:38:24.634Z,87.80
2018-06-05T22:40:53.151Z,88.10
2018-06-05T22:43:21.693Z,88.40
2018-06-05T22:45:50.201Z,88.50
2018-06-05T22:48:18.698Z,88.90
2018-06-05T22:50:47.204Z,88.80
2018-06-05T22:53:15.748Z,88.40
2018-06-05T22:55:44.238Z,88.20
2018-06-05T22:58:12.788Z,88.20
2018-06-05T23:00:41.334Z,87.90
2018-06-05T23:03:09.856Z,87.70
2018-06-05T23:05:38.413Z,87.60
2018-06-05T23:08:06.920Z,87.70
2018-06-05T23:10:35.486Z,87.70
2018-06-05T23:13:04.022Z,88.00
2018-06-05T23:15:32.538Z,88.10
2018-06-05T23:18:01.066Z,88.10
2018-06-05T23:20:29.539Z,87.60
2018-06-05T23:22:58.058Z,87.80
2018-06-05T23:25:26.554Z,88.00
2018-06-05T23:27:55.070Z,87.80
2018-06-05T23:30:23.585Z,87.70
2018-06-05T23:32:52.211Z,87.60
2018-06-05T23:35:20.733Z,87.70
2018-06-05T23:37:49.255Z,88.00
2018-06-05T23:40:17.768Z,88.00
2018-06-05T23:42:46.279Z,88.30
2018-06-05T23:45:14.797Z,88.50
2018-06-05T23:47:43.278Z,88.60
2018-06-05T23:50:11.810Z,88.70
2018-06-05T23:52:40.340Z,88.80
2018-06-05T23:55:08.834Z,88.90
2018-06-05T23:57:37.362Z,89.20
